sensor_id;sensor_type;location;lat;lon;timestamp;pressure;altitude;pressure_sealevel;temperature;humidity
46087;BME280;31824;49.648;8.640;2022-11-06T00:01:46;100767.75;;;7.54;100.00
46087;BME280;31824;49.648;8.640;2022-11-06T00:04:49;100765.13;;;7.54;100.00
46087;BME280;31824;49.648;8.640;2022-11-06T00:07:51;100757.28;;;7.54;100.00
46087;BME280;31824;49.648;8.640;2022-11-06T00:10:53;100763.38;;;7.38;100.00
46087;BME280;31824;49.648;8.640;2022-11-06T00:13:55;100748.81;;;7.40;100.00
46087;BME280;31824;49.648;8.640;2022-11-06T00:16:56;100756.53;;;7.32;100.00
46087;BME280;31824;49.648;8.640;2022-11-06T00:19:59;100752.91;;;7.38;100.00
46087;BME280;31824;49.648;8.640;2022-11-06T00:23:01;100756.25;;;7.44;100.00
46087;BME280;31824;49.648;8.640;2022-11-06T00:26:06;100755.00;;;7.57;100.00
46087;BME280;31824;49.648;8.640;2022-11-06T00:29:11;100762.63;;;7.63;100.00
46087;BME280;31824;49.648;8.640;2022-11-06T00:32:13;100753.03;;;7.70;100.00
46087;BME280;31824;49.648;8.640;2022-11-06T00:35:16;100761.50;;;7.84;100.00
46087;BME280;31824;49.648;8.640;2022-11-06T00:38:18;100752.41;;;7.96;100.00
46087;BME280;31824;49.648;8.640;2022-11-06T00:41:20;100746.34;;;8.04;100.00
46087;BME280;31824;49.648;8.640;2022-11-06T00:44:22;100732.84;;;8.08;100.00
46087;BME280;31824;49.648;8.640;2022-11-06T00:47:24;100730.97;;;8.07;100.00
46087;BME280;31824;49.648;8.640;2022-11-06T00:50:27;100726.56;;;7.99;100.00
46087;BME280;31824;49.648;8.640;2022-11-06T00:53:29;100717.56;;;8.04;100.00
46087;BME280;31824;49.648;8.640;2022-11-06T00:56:31;100715.78;;;7.96;100.00
46087;BME280;31824;49.648;8.640;2022-11-06T00:59:33;100717.28;;;7.94;100.00
46087;BME280;31824;49.648;8.640;2022-11-06T01:02:35;100719.66;;;7.84;100.00
46087;BME280;31824;49.648;8.640;2022-11-06T01:05:39;100709.66;;;7.72;100.00
46087;BME280;31824;49.648;8.640;2022-11-06T01:08:42;100705.53;;;7.74;100.00
46087;BME280;31824;49.648;8.640;2022-11-06T01:11:46;100700.81;;;7.63;100.00
46087;BME280;31824;49.648;8.640;2022-11-06T01:15:08;100708.88;;;7.57;100.00
46087;BME280;31824;49.648;8.640;2022-11-06T01:18:10;100710.97;;;7.53;100.00
46087;BME280;31824;49.648;8.640;2022-11-06T01:21:16;100698.31;;;7.49;100.00
46087;BME280;31824;49.648;8.640;2022-11-06T01:24:21;100698.81;;;7.37;100.00
46087;BME280;31824;49.648;8.640;2022-11-06T01:27:23;100696.63;;;7.26;100.00
46087;BME280;31824;49.648;8.640;2022-11-06T01:30:27;100703.06;;;7.21;100.00
46087;BME280;31824;49.648;8.640;2022-11-06T01:33:29;100699.63;;;7.29;100.00
46087;BME280;31824;49.648;8.640;2022-11-06T01:36:32;100692.19;;;7.25;100.00
46087;BME280;31824;49.648;8.640;2022-11-06T01:39:34;100686.16;;;7.10;100.00
46087;BME280;31824;49.648;8.640;2022-11-06T01:42:35;100685.75;;;7.14;100.00
46087;BME280;31824;49.648;8.640;2022-11-06T01:45:37;100687.97;;;7.11;100.00
46087;BME280;31824;49.648;8.640;2022-11-06T01:48:41;100685.34;;;7.18;100.00
46087;BME280;31824;49.648;8.640;2022-11-06T01:51:47;100686.59;;;7.22;100.00
46087;BME280;31824;49.648;8.640;2022-11-06T01:54:52;100682.31;;;7.22;100.00
46087;BME280;31824;49.648;8.640;2022-11-06T01:57:55;100664.66;;;7.36;100.00
46087;BME280;31824;49.648;8.640;2022-11-06T02:00:58;100667.16;;;7.27;100.00
46087;BME280;31824;49.648;8.640;2022-11-06T02:04:03;100655.03;;;7.28;100.00
46087;BME280;31824;49.648;8.640;2022-11-06T02:07:09;100645.06;;;7.32;100.00
46087;BME280;31824;49.648;8.640;2022-11-06T02:10:12;100652.59;;;7.29;100.00
46087;BME280;31824;49.648;8.640;2022-11-06T02:13:20;100654.66;;;7.24;100.00
46087;BME280;31824;49.648;8.640;2022-11-06T02:16:28;100654.41;;;7.14;100.00
46087;BME280;31824;49.648;8.640;2022-11-06T02:19:48;100643.06;;;7.06;100.00
46087;BME280;31824;49.648;8.640;2022-11-06T02:23:07;100652.22;;;7.03;100.00
46087;BME280;31824;49.648;8.640;2022-11-06T02:26:23;100646.97;;;7.10;100.00
46087;BME280;31824;49.648;8.640;2022-11-06T02:29:34;100641.19;;;7.05;100.00
46087;BME280;31824;49.648;8.640;2022-11-06T02:32:42;100654.41;;;7.14;100.00
46087;BME280;31824;49.648;8.640;2022-11-06T02:35:49;100638.31;;;6.95;100.00
46087;BME280;31824;49.648;8.640;2022-11-06T02:38:55;100632.97;;;6.86;100.00
46087;BME280;31824;49.648;8.640;2022-11-06T02:41:58;100631.56;;;6.97;100.00
46087;BME280;31824;49.648;8.640;2022-11-06T02:45:02;100632.16;;;6.95;100.00
46087;BME280;31824;49.648;8.640;2022-11-06T02:48:05;100632.38;;;6.89;100.00
46087;BME280;31824;49.648;8.640;2022-11-06T02:51:11;100633.13;;;6.88;100.00
46087;BME280;31824;49.648;8.640;2022-11-06T02:54:18;100636.09;;;6.68;100.00
46087;BME280;31824;49.648;8.640;2022-11-06T02:57:23;100636.91;;;6.59;100.00
46087;BME280;31824;49.648;8.640;2022-11-06T03:00:27;100637.72;;;6.44;100.00
46087;BME280;31824;49.648;8.640;2022-11-06T03:03:32;100639.34;;;6.20;100.00
46087;BME280;31824;49.648;8.640;2022-11-06T03:06:37;100646.78;;;6.24;100.00
46087;BME280;31824;49.648;8.640;2022-11-06T03:09:42;100647.53;;;6.23;100.00
46087;BME280;31824;49.648;8.640;2022-11-06T03:12:50;100653.59;;;6.38;100.00
46087;BME280;31824;49.648;8.640;2022-11-06T03:16:02;100650.59;;;6.73;100.00
46087;BME280;31824;49.648;8.640;2022-11-06T03:19:10;100646.06;;;6.79;100.00
46087;BME280;31824;49.648;8.640;2022-11-06T03:22:15;100640.72;;;6.70;100.00
46087;BME280;31824;49.648;8.640;2022-11-06T03:25:24;100644.91;;;6.61;100.00
46087;BME280;31824;49.648;8.640;2022-11-06T03:28:30;100625.81;;;6.69;100.00
46087;BME280;31824;49.648;8.640;2022-11-06T03:31:37;100607.16;;;6.73;100.00
46087;BME280;31824;49.648;8.640;2022-11-06T03:34:43;100617.28;;;6.86;100.00
46087;BME280;31824;49.648;8.640;2022-11-06T03:37:54;100614.25;;;6.67;100.00
46087;BME280;31824;49.648;8.640;2022-11-06T03:41:00;100614.66;;;6.63;100.00
46087;BME280;31824;49.648;8.640;2022-11-06T03:44:04;100612.88;;;6.55;100.00
46087;BME280;31824;49.648;8.640;2022-11-06T03:47:11;100621.97;;;6.58;100.00
46087;BME280;31824;49.648;8.640;2022-11-06T03:50:19;100615.56;;;6.40;100.00
46087;BME280;31824;49.648;8.640;2022-11-06T03:53:27;100616.06;;;6.22;100.00
46087;BME280;31824;49.648;8.640;2022-11-06T03:56:34;100611.13;;;6.32;100.00
46087;BME280;31824;49.648;8.640;2022-11-06T03:59:40;100603.41;;;6.71;100.00
46087;BME280;31824;49.648;8.640;2022-11-06T04:02:48;100597.38;;;6.56;100.00
46087;BME280;31824;49.648;8.640;2022-11-06T04:05:53;100595.66;;;6.64;100.00
46087;BME280;31824;49.648;8.640;2022-11-06T04:09:02;100598.03;;;6.70;100.00
46087;BME280;31824;49.648;8.640;2022-11-06T04:12:25;100588.72;;;6.65;100.00
46087;BME280;31824;49.648;8.640;2022-11-06T04:16:38;100594.31;;;6.45;100.00
46087;BME280;31824;49.648;8.640;2022-11-06T04:19:47;100593.44;;;6.60;100.00
46087;BME280;31824;49.648;8.640;2022-11-06T04:22:54;100593.00;;;6.41;100.00
46087;BME280;31824;49.648;8.640;2022-11-06T04:26:05;100591.91;;;6.39;100.00
46087;BME280;31824;49.648;8.640;2022-11-06T04:29:33;100593.53;;;6.46;100.00
46087;BME280;31824;49.648;8.640;2022-11-06T04:32:50;100586.84;;;6.40;100.00
46087;BME280;31824;49.648;8.640;2022-11-06T04:36:10;100594.38;;;6.30;100.00
46087;BME280;31824;49.648;8.640;2022-11-06T04:39:20;100596.06;;;6.30;100.00
46087;BME280;31824;49.648;8.640;2022-11-06T04:42:26;100591.53;;;6.36;100.00
46087;BME280;31824;49.648;8.640;2022-11-06T04:45:32;100609.88;;;6.29;100.00
46087;BME280;31824;49.648;8.640;2022-11-06T04:48:36;100618.31;;;6.12;100.00
46087;BME280;31824;49.648;8.640;2022-11-06T04:51:42;100623.59;;;5.90;100.00
46087;BME280;31824;49.648;8.640;2022-11-06T04:54:45;100624.00;;;5.93;100.00
46087;BME280;31824;49.648;8.640;2022-11-06T04:57:47;100626.63;;;5.79;100.00
46087;BME280;31824;49.648;8.640;2022-11-06T05:00:50;100607.50;;;5.64;100.00
46087;BME280;31824;49.648;8.640;2022-11-06T05:03:52;100611.28;;;5.44;100.00
46087;BME280;31824;49.648;8.640;2022-11-06T05:06:55;100613.56;;;5.27;100.00
46087;BME280;31824;49.648;8.640;2022-11-06T05:09:56;100626.56;;;5.34;100.00
46087;BME280;31824;49.648;8.640;2022-11-06T05:12:58;100633.84;;;5.15;100.00
46087;BME280;31824;49.648;8.640;2022-11-06T05:16:00;100634.22;;;5.11;100.00
46087;BME280;31824;49.648;8.640;2022-11-06T05:19:02;100641.47;;;4.99;100.00
46087;BME280;31824;49.648;8.640;2022-11-06T05:22:05;100634.97;;;4.95;100.00
46087;BME280;31824;49.648;8.640;2022-11-06T05:25:27;100632.16;;;4.86;100.00
46087;BME280;31824;49.648;8.640;2022-11-06T05:28:30;100625.28;;;5.16;100.00
46087;BME280;31824;49.648;8.640;2022-11-06T05:31:31;100611.13;;;5.14;100.00
46087;BME280;31824;49.648;8.640;2022-11-06T05:34:33;100603.91;;;5.18;100.00
46087;BME280;31824;49.648;8.640;2022-11-06T05:37:36;100607.06;;;5.16;100.00
46087;BME280;31824;49.648;8.640;2022-11-06T05:40:38;100601.13;;;5.17;100.00
46087;BME280;31824;49.648;8.640;2022-11-06T05:43:39;100602.97;;;5.11;100.00
46087;BME280;31824;49.648;8.640;2022-11-06T05:46:41;100594.63;;;4.84;100.00
46087;BME280;31824;49.648;8.640;2022-11-06T05:49:50;100588.31;;;4.75;100.00
46087;BME280;31824;49.648;8.640;2022-11-06T05:52:53;100590.16;;;4.69;100.00
46087;BME280;31824;49.648;8.640;2022-11-06T05:55:54;100582.88;;;4.66;100.00
46087;BME280;31824;49.648;8.640;2022-11-06T05:58:56;100582.16;;;4.74;100.00
46087;BME280;31824;49.648;8.640;2022-11-06T06:01:58;100576.41;;;4.84;100.00
46087;BME280;31824;49.648;8.640;2022-11-06T06:05:00;100564.50;;;4.72;100.00
46087;BME280;31824;49.648;8.640;2022-11-06T06:08:03;100550.19;;;4.76;100.00
46087;BME280;31824;49.648;8.640;2022-11-06T06:11:05;100535.66;;;5.06;100.00
46087;BME280;31824;49.648;8.640;2022-11-06T06:14:09;100538.41;;;5.22;100.00
46087;BME280;31824;49.648;8.640;2022-11-06T06:17:11;100539.53;;;5.69;100.00
46087;BME280;31824;49.648;8.640;2022-11-06T06:20:13;100548.25;;;5.77;100.00
46087;BME280;31824;49.648;8.640;2022-11-06T06:23:16;100544.97;;;5.94;100.00
46087;BME280;31824;49.648;8.640;2022-11-06T06:26:18;100543.31;;;6.02;100.00
46087;BME280;31824;49.648;8.640;2022-11-06T06:29:19;100528.38;;;6.08;100.00
46087;BME280;31824;49.648;8.640;2022-11-06T06:32:21;100517.84;;;6.22;100.00
46087;BME280;31824;49.648;8.640;2022-11-06T06:35:23;100503.75;;;6.36;100.00
46087;BME280;31824;49.648;8.640;2022-11-06T06:38:26;100489.03;;;6.37;100.00
46087;BME280;31824;49.648;8.640;2022-11-06T06:41:27;100490.75;;;6.52;100.00
46087;BME280;31824;49.648;8.640;2022-11-06T06:44:30;100476.84;;;6.68;100.00
46087;BME280;31824;49.648;8.640;2022-11-06T06:47:31;100464.94;;;6.63;100.00
46087;BME280;31824;49.648;8.640;2022-11-06T06:50:33;100464.19;;;6.64;100.00
46087;BME280;31824;49.648;8.640;2022-11-06T06:53:36;100447.72;;;6.72;100.00
46087;BME280;31824;49.648;8.640;2022-11-06T06:56:38;100444.31;;;6.73;100.00
46087;BME280;31824;49.648;8.640;2022-11-06T06:59:39;100447.34;;;6.69;100.00
46087;BME280;31824;49.648;8.640;2022-11-06T07:02:41;100457.28;;;6.64;100.00
46087;BME280;31824;49.648;8.640;2022-11-06T07:05:43;100455.09;;;6.60;100.00
46087;BME280;31824;49.648;8.640;2022-11-06T07:08:46;100454.78;;;6.50;100.00
46087;BME280;31824;49.648;8.640;2022-11-06T07:11:48;100442.00;;;6.44;100.00
46087;BME280;31824;49.648;8.640;2022-11-06T07:14:50;100444.44;;;6.42;100.00
46087;BME280;31824;49.648;8.640;2022-11-06T07:17:51;100446.19;;;6.74;100.00
46087;BME280;31824;49.648;8.640;2022-11-06T07:20:53;100446.09;;;6.81;100.00
46087;BME280;31824;49.648;8.640;2022-11-06T07:23:56;100437.84;;;7.01;100.00
46087;BME280;31824;49.648;8.640;2022-11-06T07:26:58;100441.91;;;7.06;100.00
46087;BME280;31824;49.648;8.640;2022-11-06T07:29:59;100442.00;;;6.99;100.00
46087;BME280;31824;49.648;8.640;2022-11-06T07:33:02;100434.75;;;7.13;100.00
46087;BME280;31824;49.648;8.640;2022-11-06T07:36:06;100427.25;;;7.00;100.00
46087;BME280;31824;49.648;8.640;2022-11-06T07:39:10;100415.63;;;6.89;100.00
46087;BME280;31824;49.648;8.640;2022-11-06T07:42:11;100416.72;;;6.75;100.00
46087;BME280;31824;49.648;8.640;2022-11-06T07:45:28;100416.53;;;6.73;100.00
46087;BME280;31824;49.648;8.640;2022-11-06T07:48:31;100421.34;;;6.78;100.00
46087;BME280;31824;49.648;8.640;2022-11-06T07:51:33;100418.72;;;6.78;100.00
46087;BME280;31824;49.648;8.640;2022-11-06T07:54:36;100413.94;;;6.73;100.00
46087;BME280;31824;49.648;8.640;2022-11-06T07:57:38;100412.75;;;6.79;100.00
46087;BME280;31824;49.648;8.640;2022-11-06T08:00:39;100416.13;;;6.78;100.00
46087;BME280;31824;49.648;8.640;2022-11-06T08:03:41;100414.13;;;6.91;100.00
46087;BME280;31824;49.648;8.640;2022-11-06T08:06:43;100422.78;;;6.99;100.00
46087;BME280;31824;49.648;8.640;2022-11-06T08:09:46;100439.72;;;7.02;100.00
46087;BME280;31824;49.648;8.640;2022-11-06T08:12:48;100445.63;;;6.92;100.00
46087;BME280;31824;49.648;8.640;2022-11-06T08:15:49;100452.38;;;7.06;100.00
46087;BME280;31824;49.648;8.640;2022-11-06T08:18:51;100459.88;;;7.03;100.00
46087;BME280;31824;49.648;8.640;2022-11-06T08:21:53;100474.09;;;7.30;100.00
46087;BME280;31824;49.648;8.640;2022-11-06T08:24:56;100484.75;;;7.32;100.00
46087;BME280;31824;49.648;8.640;2022-11-06T08:27:59;100495.63;;;7.28;100.00
46087;BME280;31824;49.648;8.640;2022-11-06T08:31:03;100490.38;;;7.12;100.00
46087;BME280;31824;49.648;8.640;2022-11-06T08:34:05;100492.06;;;6.95;100.00
46087;BME280;31824;49.648;8.640;2022-11-06T08:37:08;100484.63;;;6.91;100.00
46087;BME280;31824;49.648;8.640;2022-11-06T08:40:11;100479.41;;;6.91;100.00
46087;BME280;31824;49.648;8.640;2022-11-06T08:43:13;100484.22;;;6.95;100.00
46087;BME280;31824;49.648;8.640;2022-11-06T08:46:15;100483.44;;;6.96;100.00
46087;BME280;31824;49.648;8.640;2022-11-06T08:49:17;100486.31;;;7.06;100.00
46087;BME280;31824;49.648;8.640;2022-11-06T08:52:18;100475.78;;;6.98;100.00
46087;BME280;31824;49.648;8.640;2022-11-06T08:55:21;100472.75;;;7.18;100.00
46087;BME280;31824;49.648;8.640;2022-11-06T08:58:23;100467.34;;;7.32;100.00
46087;BME280;31824;49.648;8.640;2022-11-06T09:01:25;100467.78;;;7.28;100.00
46087;BME280;31824;49.648;8.640;2022-11-06T09:04:27;100455.63;;;7.44;100.00
46087;BME280;31824;49.648;8.640;2022-11-06T09:07:29;100445.03;;;7.68;100.00
46087;BME280;31824;49.648;8.640;2022-11-06T09:10:32;100438.34;;;7.78;100.00
46087;BME280;31824;49.648;8.640;2022-11-06T09:13:33;100429.59;;;7.78;100.00
46087;BME280;31824;49.648;8.640;2022-11-06T09:16:35;100424.72;;;7.90;100.00
46087;BME280;31824;49.648;8.640;2022-11-06T09:19:37;100424.91;;;8.25;100.00
46087;BME280;31824;49.648;8.640;2022-11-06T09:22:39;100416.38;;;8.43;100.00
46087;BME280;31824;49.648;8.640;2022-11-06T09:25:45;100403.59;;;8.38;100.00
46087;BME280;31824;49.648;8.640;2022-11-06T09:28:46;100399.25;;;8.38;100.00
46087;BME280;31824;49.648;8.640;2022-11-06T09:31:48;100401.97;;;8.22;100.00
46087;BME280;31824;49.648;8.640;2022-11-06T09:34:50;100399.31;;;8.14;100.00
46087;BME280;31824;49.648;8.640;2022-11-06T09:37:52;100387.19;;;8.23;100.00
46087;BME280;31824;49.648;8.640;2022-11-06T09:40:57;100369.44;;;8.45;100.00
46087;BME280;31824;49.648;8.640;2022-11-06T09:44:09;100371.53;;;8.83;100.00
46087;BME280;31824;49.648;8.640;2022-11-06T09:47:21;100363.38;;;9.06;100.00
46087;BME280;31824;49.648;8.640;2022-11-06T09:50:27;100349.19;;;9.21;100.00
46087;BME280;31824;49.648;8.640;2022-11-06T09:53:33;100349.03;;;9.37;100.00
46087;BME280;31824;49.648;8.640;2022-11-06T09:56:39;100352.56;;;9.46;100.00
46087;BME280;31824;49.648;8.640;2022-11-06T09:59:42;100345.47;;;9.45;100.00
46087;BME280;31824;49.648;8.640;2022-11-06T10:02:47;100335.91;;;9.55;100.00
46087;BME280;31824;49.648;8.640;2022-11-06T10:05:51;100322.78;;;9.55;100.00
46087;BME280;31824;49.648;8.640;2022-11-06T10:08:56;100321.38;;;9.58;100.00
46087;BME280;31824;49.648;8.640;2022-11-06T10:12:09;100313.19;;;9.55;100.00
46087;BME280;31824;49.648;8.640;2022-11-06T10:15:21;100306.88;;;9.62;100.00
46087;BME280;31824;49.648;8.640;2022-11-06T10:18:31;100293.69;;;9.71;100.00
46087;BME280;31824;49.648;8.640;2022-11-06T10:21:45;100284.22;;;9.90;100.00
46087;BME280;31824;49.648;8.640;2022-11-06T10:24:54;100272.16;;;10.01;100.00
46087;BME280;31824;49.648;8.640;2022-11-06T10:28:07;100262.41;;;10.00;100.00
46087;BME280;31824;49.648;8.640;2022-11-06T10:31:20;100258.41;;;10.04;100.00
46087;BME280;31824;49.648;8.640;2022-11-06T10:34:29;100249.47;;;10.21;100.00
46087;BME280;31824;49.648;8.640;2022-11-06T10:37:37;100241.59;;;10.21;100.00
46087;BME280;31824;49.648;8.640;2022-11-06T10:40:43;100232.75;;;10.29;100.00
46087;BME280;31824;49.648;8.640;2022-11-06T10:43:49;100236.16;;;10.56;100.00
46087;BME280;31824;49.648;8.640;2022-11-06T10:46:54;100237.38;;;10.59;100.00
46087;BME280;31824;49.648;8.640;2022-11-06T10:50:01;100222.03;;;10.64;100.00
46087;BME280;31824;49.648;8.640;2022-11-06T10:53:07;100215.25;;;10.76;100.00
46087;BME280;31824;49.648;8.640;2022-11-06T10:56:27;100215.34;;;10.87;100.00
46087;BME280;31824;49.648;8.640;2022-11-06T10:59:34;100227.66;;;10.88;100.00
46087;BME280;31824;49.648;8.640;2022-11-06T11:02:39;100229.22;;;11.05;100.00
46087;BME280;31824;49.648;8.640;2022-11-06T11:05:43;100222.78;;;11.41;100.00
46087;BME280;31824;49.648;8.640;2022-11-06T11:08:46;100226.75;;;11.46;100.00
46087;BME280;31824;49.648;8.640;2022-11-06T11:11:48;100223.06;;;11.94;100.00
46087;BME280;31824;49.648;8.640;2022-11-06T11:15:11;100212.72;;;11.95;100.00
46087;BME280;31824;49.648;8.640;2022-11-06T11:18:16;100198.50;;;12.04;100.00
46087;BME280;31824;49.648;8.640;2022-11-06T11:21:23;100191.41;;;12.33;100.00
46087;BME280;31824;49.648;8.640;2022-11-06T11:24:26;100191.00;;;12.19;100.00
46087;BME280;31824;49.648;8.640;2022-11-06T11:27:29;100177.03;;;12.20;100.00
46087;BME280;31824;49.648;8.640;2022-11-06T11:30:33;100162.50;;;12.56;100.00
46087;BME280;31824;49.648;8.640;2022-11-06T11:33:36;100165.63;;;12.62;100.00
46087;BME280;31824;49.648;8.640;2022-11-06T11:36:56;100155.88;;;13.04;100.00
46087;BME280;31824;49.648;8.640;2022-11-06T11:40:17;100153.00;;;13.00;100.00
46087;BME280;31824;49.648;8.640;2022-11-06T11:43:22;100148.19;;;13.17;100.00
46087;BME280;31824;49.648;8.640;2022-11-06T11:46:25;100145.59;;;13.39;100.00
46087;BME280;31824;49.648;8.640;2022-11-06T11:49:28;100136.22;;;13.10;100.00
46087;BME280;31824;49.648;8.640;2022-11-06T11:52:30;100127.94;;;13.06;100.00
46087;BME280;31824;49.648;8.640;2022-11-06T11:55:38;100109.84;;;13.32;100.00
46087;BME280;31824;49.648;8.640;2022-11-06T11:58:48;100099.22;;;13.53;100.00
46087;BME280;31824;49.648;8.640;2022-11-06T12:01:52;100086.97;;;13.43;100.00
46087;BME280;31824;49.648;8.640;2022-11-06T12:04:58;100081.19;;;13.15;100.00
46087;BME280;31824;49.648;8.640;2022-11-06T12:08:01;100078.63;;;13.05;100.00
46087;BME280;31824;49.648;8.640;2022-11-06T12:11:04;100074.25;;;13.05;100.00
46087;BME280;31824;49.648;8.640;2022-11-06T12:14:32;100067.63;;;13.10;100.00
46087;BME280;31824;49.648;8.640;2022-11-06T12:17:38;100057.13;;;12.78;100.00
46087;BME280;31824;49.648;8.640;2022-11-06T12:20:44;100061.16;;;12.62;100.00
46087;BME280;31824;49.648;8.640;2022-11-06T12:23:53;100046.53;;;12.88;100.00
46087;BME280;31824;49.648;8.640;2022-11-06T12:26:58;100039.38;;;12.97;100.00
46087;BME280;31824;49.648;8.640;2022-11-06T12:30:05;100046.34;;;12.97;100.00
46087;BME280;31824;49.648;8.640;2022-11-06T12:33:14;100049.63;;;12.50;100.00
46087;BME280;31824;49.648;8.640;2022-11-06T12:36:18;100038.78;;;12.14;100.00
46087;BME280;31824;49.648;8.640;2022-11-06T12:39:23;100023.66;;;12.12;100.00
46087;BME280;31824;49.648;8.640;2022-11-06T12:42:31;100016.91;;;12.26;100.00
46087;BME280;31824;49.648;8.640;2022-11-06T12:45:42;100022.19;;;12.15;100.00
46087;BME280;31824;49.648;8.640;2022-11-06T12:49:12;100014.28;;;12.58;100.00
46087;BME280;31824;49.648;8.640;2022-11-06T12:52:29;100003.25;;;12.74;100.00
46087;BME280;31824;49.648;8.640;2022-11-06T12:55:34;99992.31;;;12.92;100.00
46087;BME280;31824;49.648;8.640;2022-11-06T12:58:51;99980.19;;;12.94;100.00
46087;BME280;31824;49.648;8.640;2022-11-06T13:02:02;99991.63;;;12.82;100.00
46087;BME280;31824;49.648;8.640;2022-11-06T13:05:17;99981.22;;;12.52;100.00
46087;BME280;31824;49.648;8.640;2022-11-06T13:08:30;99975.56;;;12.47;100.00
46087;BME280;31824;49.648;8.640;2022-11-06T13:11:44;99970.13;;;12.33;100.00
46087;BME280;31824;49.648;8.640;2022-11-06T13:14:59;99961.72;;;12.17;100.00
46087;BME280;31824;49.648;8.640;2022-11-06T13:18:07;99957.16;;;12.14;100.00
46087;BME280;31824;49.648;8.640;2022-11-06T13:21:16;99959.28;;;11.98;100.00
46087;BME280;31824;49.648;8.640;2022-11-06T13:24:24;99951.69;;;12.01;100.00
46087;BME280;31824;49.648;8.640;2022-11-06T13:27:32;99951.56;;;11.99;100.00
46087;BME280;31824;49.648;8.640;2022-11-06T13:30:38;99962.44;;;12.04;100.00
46087;BME280;31824;49.648;8.640;2022-11-06T13:33:43;99964.78;;;12.11;100.00
46087;BME280;31824;49.648;8.640;2022-11-06T13:36:49;99957.06;;;12.03;100.00
46087;BME280;31824;49.648;8.640;2022-11-06T13:39:55;99964.16;;;11.93;100.00
46087;BME280;31824;49.648;8.640;2022-11-06T13:43:03;99966.41;;;11.99;100.00
46087;BME280;31824;49.648;8.640;2022-11-06T13:46:11;99955.63;;;11.86;100.00
46087;BME280;31824;49.648;8.640;2022-11-06T13:49:21;99950.34;;;11.86;100.00
46087;BME280;31824;49.648;8.640;2022-11-06T13:52:35;99952.50;;;11.79;100.00
46087;BME280;31824;49.648;8.640;2022-11-06T13:55:51;99951.59;;;11.69;100.00
46087;BME280;31824;49.648;8.640;2022-11-06T14:02:32;99941.06;;;11.58;100.00
46087;BME280;31824;49.648;8.640;2022-11-06T14:05:48;99936.25;;;11.42;100.00
46087;BME280;31824;49.648;8.640;2022-11-06T14:08:54;99916.59;;;11.49;100.00
46087;BME280;31824;49.648;8.640;2022-11-06T14:11:59;99912.16;;;11.48;100.00
46087;BME280;31824;49.648;8.640;2022-11-06T14:15:14;99909.13;;;11.43;100.00
46087;BME280;31824;49.648;8.640;2022-11-06T14:18:20;99906.41;;;11.21;100.00
46087;BME280;31824;49.648;8.640;2022-11-06T14:21:49;99915.34;;;11.13;100.00
46087;BME280;31824;49.648;8.640;2022-11-06T14:24:53;99916.25;;;11.13;100.00
46087;BME280;31824;49.648;8.640;2022-11-06T14:28:04;99912.84;;;11.25;100.00
46087;BME280;31824;49.648;8.640;2022-11-06T14:31:06;99910.75;;;11.10;100.00
46087;BME280;31824;49.648;8.640;2022-11-06T14:34:26;99907.19;;;11.20;100.00
46087;BME280;31824;49.648;8.640;2022-11-06T14:37:46;99906.16;;;11.18;100.00
46087;BME280;31824;49.648;8.640;2022-11-06T14:40:50;99909.81;;;11.20;100.00
46087;BME280;31824;49.648;8.640;2022-11-06T14:43:58;99899.81;;;11.16;100.00
46087;BME280;31824;49.648;8.640;2022-11-06T14:47:04;99892.72;;;11.25;100.00
46087;BME280;31824;49.648;8.640;2022-11-06T14:50:22;99900.63;;;11.36;100.00
46087;BME280;31824;49.648;8.640;2022-11-06T14:53:28;99892.34;;;11.21;100.00
46087;BME280;31824;49.648;8.640;2022-11-06T14:56:34;99897.06;;;11.14;100.00
46087;BME280;31824;49.648;8.640;2022-11-06T14:59:40;99900.22;;;10.90;100.00
46087;BME280;31824;49.648;8.640;2022-11-06T15:02:42;99898.28;;;10.97;100.00
46087;BME280;31824;49.648;8.640;2022-11-06T15:05:45;99899.56;;;11.13;100.00
46087;BME280;31824;49.648;8.640;2022-11-06T15:08:58;99916.91;;;10.90;100.00
46087;BME280;31824;49.648;8.640;2022-11-06T15:12:02;99906.66;;;11.04;100.00
46087;BME280;31824;49.648;8.640;2022-11-06T15:15:14;99903.13;;;10.93;100.00
46087;BME280;31824;49.648;8.640;2022-11-06T15:18:18;99892.47;;;10.81;100.00
46087;BME280;31824;49.648;8.640;2022-11-06T15:21:28;99889.06;;;10.72;100.00
46087;BME280;31824;49.648;8.640;2022-11-06T15:24:34;99883.66;;;10.80;100.00
46087;BME280;31824;49.648;8.640;2022-11-06T15:27:42;99877.09;;;10.75;100.00
46087;BME280;31824;49.648;8.640;2022-11-06T15:30:47;99883.41;;;10.77;100.00
46087;BME280;31824;49.648;8.640;2022-11-06T15:33:55;99880.25;;;10.71;100.00
46087;BME280;31824;49.648;8.640;2022-11-06T15:37:07;99875.94;;;10.72;100.00
46087;BME280;31824;49.648;8.640;2022-11-06T15:40:22;99873.78;;;10.57;100.00
46087;BME280;31824;49.648;8.640;2022-11-06T15:43:28;99860.41;;;10.64;100.00
46087;BME280;31824;49.648;8.640;2022-11-06T15:46:31;99864.50;;;10.61;100.00
46087;BME280;31824;49.648;8.640;2022-11-06T15:49:32;99867.75;;;10.69;100.00
46087;BME280;31824;49.648;8.640;2022-11-06T15:52:34;99876.69;;;10.81;100.00
46087;BME280;31824;49.648;8.640;2022-11-06T15:55:37;99877.34;;;10.68;100.00
46087;BME280;31824;49.648;8.640;2022-11-06T15:58:41;99872.72;;;10.45;100.00
46087;BME280;31824;49.648;8.640;2022-11-06T16:01:46;99880.34;;;10.52;100.00
46087;BME280;31824;49.648;8.640;2022-11-06T16:04:49;99880.38;;;10.62;100.00
46087;BME280;31824;49.648;8.640;2022-11-06T16:07:51;99870.66;;;10.61;100.00
46087;BME280;31824;49.648;8.640;2022-11-06T16:10:53;99853.44;;;10.55;100.00
46087;BME280;31824;49.648;8.640;2022-11-06T16:13:57;99851.25;;;10.30;100.00